Time;durP1;ratioP1;P1;durP2;ratioP2;P2;SDS_P1;SDS_P2;PMS_P1;PMS_P2;Temp;Humidity;BMP_temperature;BMP_pressure;BME280_temperature;BME280_humidity;BME280_pressure;Samples;Min_cycle;Max_cycle;Signal;HPM_P1;HPM_P2
2022/06/30 00:00:23;;;;;;;3.77;1.00;;;;;;;;;;5061485;28;20282;-77
2022/06/30 00:02:50;;;;;;;3.30;1.30;;;;;;;;;;5062124;28;20226;-77
2022/06/30 00:05:17;;;;;;;4.63;1.47;;;;;;;;;;5081361;28;20278;-77
2022/06/30 00:07:44;;;;;;;3.33;1.20;;;;;;;;;;5072014;28;20202;-77
2022/06/30 00:10:12;;;;;;;4.63;1.50;;;;;;;;;;5060749;28;20238;-77
2022/06/30 00:12:39;;;;;;;3.93;1.50;;;;;;;;;;5066230;28;20232;-77
2022/06/30 00:15:06;;;;;;;3.93;1.67;;;;;;;;;;5059565;28;20309;-77
2022/06/30 00:17:35;;;;;;;2.90;1.50;;;;;;;;;;5066813;28;20282;-77
2022/06/30 00:20:02;;;;;;;3.07;1.33;;;;;;;;;;5056460;28;20227;-77
2022/06/30 00:22:29;;;;;;;3.63;1.37;;;;;;;;;;5062390;28;20295;-77
2022/06/30 00:24:57;;;;;;;5.17;1.80;;;;;;;;;;5067621;28;20224;-77
2022/06/30 00:27:24;;;;;;;4.77;1.50;;;;;;;;;;5054639;28;20287;-77
2022/06/30 00:29:51;;;;;;;4.47;1.50;;;;;;;;;;5061131;28;20250;-77
2022/06/30 00:32:18;;;;;;;4.13;1.70;;;;;;;;;;5068536;28;20656;-77
2022/06/30 00:34:47;;;;;;;4.17;1.80;;;;;;;;;;5062348;28;20230;-77
2022/06/30 00:37:14;;;;;;;4.63;1.60;;;;;;;;;;5057443;28;20235;-77
2022/06/30 00:39:41;;;;;;;4.27;1.60;;;;;;;;;;5065452;28;20195;-78
2022/06/30 00:42:08;;;;;;;3.93;1.60;;;;;;;;;;5061189;28;20286;-77
2022/06/30 00:44:36;;;;;;;4.83;1.73;;;;;;;;;;5067916;28;20227;-78
2022/06/30 00:47:05;;;;;;;3.67;1.70;;;;;;;;;;5082309;28;20277;-77
2022/06/30 00:49:32;;;;;;;3.80;2.07;;;;;;;;;;5078161;28;20198;-77
2022/06/30 00:52:02;;;;;;;3.93;1.60;;;;;;;;;;5086745;28;20674;-77
2022/06/30 00:54:29;;;;;;;3.23;1.73;;;;;;;;;;5058362;28;20283;-78
2022/06/30 00:56:57;;;;;;;5.27;1.87;;;;;;;;;;5055441;28;20306;-77
2022/06/30 00:59:25;;;;;;;6.73;2.10;;;;;;;;;;5055275;28;20238;-77
2022/06/30 01:01:53;;;;;;;5.20;2.07;;;;;;;;;;5068726;28;20196;-77
2022/06/30 01:04:20;;;;;;;3.47;1.83;;;;;;;;;;5074551;28;20223;-77
2022/06/30 01:06:47;;;;;;;4.20;1.63;;;;;;;;;;5080491;28;20202;-77
2022/06/30 01:12:41;;;;;;;4.73;1.97;;;;;;;;;;5074953;28;20298;-77
2022/06/30 01:14:50;;;;;;;4.03;1.50;;;;;;;;;;5073937;28;20657;-77
2022/06/30 01:17:18;;;;;;;5.20;1.70;;;;;;;;;;5082558;28;20271;-77
2022/06/30 01:19:52;;;;;;;3.37;1.70;;;;;;;;;;5058631;28;20279;-77
2022/06/30 01:22:20;;;;;;;3.57;1.43;;;;;;;;;;5073697;28;20202;-77
2022/06/30 01:24:48;;;;;;;3.97;1.47;;;;;;;;;;5061007;28;20284;-78
2022/06/30 01:27:15;;;;;;;3.07;1.67;;;;;;;;;;5070429;28;20282;-77
2022/06/30 01:29:42;;;;;;;3.13;1.60;;;;;;;;;;5062424;28;20230;-77
2022/06/30 01:32:10;;;;;;;4.50;1.63;;;;;;;;;;5066442;28;20295;-77
2022/06/30 01:34:37;;;;;;;3.50;1.60;;;;;;;;;;5064042;28;20307;-77
2022/06/30 01:37:05;;;;;;;5.63;1.90;;;;;;;;;;5076964;28;20246;-77
2022/06/30 01:39:33;;;;;;;7.37;1.90;;;;;;;;;;5059715;28;20626;-77
2022/06/30 01:42:00;;;;;;;5.73;1.80;;;;;;;;;;5074088;28;20285;-77
2022/06/30 01:44:28;;;;;;;3.80;1.40;;;;;;;;;;5072779;28;20376;-77
2022/06/30 01:46:55;;;;;;;3.00;1.40;;;;;;;;;;5086339;28;20286;-77
2022/06/30 01:49:22;;;;;;;3.43;1.20;;;;;;;;;;5079140;28;20340;-77
2022/06/30 01:51:49;;;;;;;2.13;1.27;;;;;;;;;;5063752;28;20323;-77
2022/06/30 01:54:17;;;;;;;4.30;1.57;;;;;;;;;;5062087;28;20255;-77
2022/06/30 01:56:45;;;;;;;3.27;1.30;;;;;;;;;;5061630;28;20321;-77
2022/06/30 01:59:13;;;;;;;2.67;1.47;;;;;;;;;;5062566;28;20199;-77
2022/06/30 02:01:40;;;;;;;3.90;1.60;;;;;;;;;;5062382;28;20222;-77
2022/06/30 02:06:53;;;;;;;5.97;1.50;;;;;;;;;;5075465;28;20688;-77
2022/06/30 02:09:20;;;;;;;3.87;1.40;;;;;;;;;;5066607;28;20233;-77
2022/06/30 02:12:44;;;;;;;5.63;1.53;;;;;;;;;;5061254;28;20234;-77
2022/06/30 02:14:35;;;;;;;2.73;1.77;;;;;;;;;;5060978;28;20193;-77
2022/06/30 02:17:03;;;;;;;4.53;1.60;;;;;;;;;;5068534;28;20310;-77
2022/06/30 02:19:30;;;;;;;3.10;1.80;;;;;;;;;;5062545;28;20582;-77
2022/06/30 02:21:57;;;;;;;4.27;1.90;;;;;;;;;;5072458;28;20256;-77
2022/06/30 02:24:25;;;;;;;4.10;2.00;;;;;;;;;;5062909;28;20289;-77
2022/06/30 02:26:53;;;;;;;1.93;1.43;;;;;;;;;;5065511;28;20197;-77
2022/06/30 02:29:21;;;;;;;3.77;2.13;;;;;;;;;;5061569;28;20230;-77
2022/06/30 02:31:48;;;;;;;2.93;2.00;;;;;;;;;;5071161;28;20229;-77
2022/06/30 02:34:15;;;;;;;4.83;1.87;;;;;;;;;;5072808;28;20286;-77
2022/06/30 02:36:42;;;;;;;2.63;1.70;;;;;;;;;;5081981;28;20281;-77
2022/06/30 02:39:09;;;;;;;2.90;1.90;;;;;;;;;;5058829;28;20285;-77
2022/06/30 02:41:37;;;;;;;3.20;1.73;;;;;;;;;;5060905;28;20209;-78
2022/06/30 02:44:05;;;;;;;4.83;2.07;;;;;;;;;;5064595;28;20233;-77
2022/06/30 02:46:33;;;;;;;4.37;2.00;;;;;;;;;;5059426;28;20234;-77
2022/06/30 02:49:00;;;;;;;4.80;1.93;;;;;;;;;;5073398;28;20192;-77
2022/06/30 02:51:27;;;;;;;5.07;1.90;;;;;;;;;;5066062;28;20741;-77
2022/06/30 02:53:54;;;;;;;4.07;2.03;;;;;;;;;;5060740;28;20292;-77
2022/06/30 02:56:22;;;;;;;6.10;2.10;;;;;;;;;;5060627;28;20259;-77
2022/06/30 02:58:49;;;;;;;4.43;2.20;;;;;;;;;;5075428;28;20745;-77
2022/06/30 03:01:18;;;;;;;2.73;1.83;;;;;;;;;;5076983;28;20198;-77
2022/06/30 03:03:45;;;;;;;5.50;1.90;;;;;;;;;;5075724;28;20284;-77
2022/06/30 03:06:12;;;;;;;4.17;1.83;;;;;;;;;;5063259;28;20231;-77
2022/06/30 03:08:39;;;;;;;3.90;1.77;;;;;;;;;;5073181;28;20236;-77
2022/06/30 03:11:07;;;;;;;4.37;2.20;;;;;;;;;;5072648;28;20229;-77
2022/06/30 03:13:34;;;;;;;4.03;1.97;;;;;;;;;;5057000;28;20583;-77
2022/06/30 03:16:01;;;;;;;4.10;2.00;;;;;;;;;;5056970;28;20246;-77
2022/06/30 03:18:30;;;;;;;5.07;2.03;;;;;;;;;;5068913;28;20583;-77
2022/06/30 03:20:57;;;;;;;4.63;1.60;;;;;;;;;;5060554;28;20288;-77
2022/06/30 03:23:26;;;;;;;4.20;2.10;;;;;;;;;;5065838;28;20623;-77
2022/06/30 03:25:53;;;;;;;4.87;2.40;;;;;;;;;;5053616;28;20204;-77
2022/06/30 03:28:21;;;;;;;4.03;2.00;;;;;;;;;;5070517;28;20292;-77
2022/06/30 03:30:48;;;;;;;4.03;2.07;;;;;;;;;;5058306;28;20245;-77
2022/06/30 03:33:16;;;;;;;4.53;2.20;;;;;;;;;;5063529;28;20205;-77
2022/06/30 03:35:44;;;;;;;3.73;2.03;;;;;;;;;;5061031;28;20217;-77
2022/06/30 03:38:12;;;;;;;3.97;1.93;;;;;;;;;;5063804;28;20298;-77
2022/06/30 03:40:40;;;;;;;11.27;2.27;;;;;;;;;;5061434;28;20235;-77
2022/06/30 03:43:07;;;;;;;4.53;1.80;;;;;;;;;;5063085;28;20280;-77
2022/06/30 03:45:35;;;;;;;5.93;2.20;;;;;;;;;;5055768;28;20199;-77
2022/06/30 03:48:02;;;;;;;5.47;2.40;;;;;;;;;;5059858;28;20745;-77
2022/06/30 03:50:30;;;;;;;3.90;2.10;;;;;;;;;;5062236;28;20238;-77
2022/06/30 03:52:59;;;;;;;3.90;2.00;;;;;;;;;;5060141;28;20202;-77
2022/06/30 03:55:26;;;;;;;6.23;2.00;;;;;;;;;;5064692;28;20612;-77
2022/06/30 03:57:54;;;;;;;8.03;2.37;;;;;;;;;;5063546;28;20670;-77
2022/06/30 04:00:22;;;;;;;4.27;2.10;;;;;;;;;;5064655;28;20285;-77
2022/06/30 04:02:50;;;;;;;4.93;1.97;;;;;;;;;;5063630;28;20287;-77
2022/06/30 04:05:17;;;;;;;5.13;2.10;;;;;;;;;;5060105;28;21535;-77
2022/06/30 04:07:45;;;;;;;4.10;2.27;;;;;;;;;;5070454;28;20199;-77
2022/06/30 04:10:14;;;;;;;4.77;1.90;;;;;;;;;;5071163;28;20228;-77
2022/06/30 04:12:41;;;;;;;4.97;2.10;;;;;;;;;;5065882;28;20233;-77
2022/06/30 04:15:09;;;;;;;3.30;2.20;;;;;;;;;;5071382;28;20302;-77
2022/06/30 04:17:36;;;;;;;5.27;1.90;;;;;;;;;;5075398;28;20650;-77
2022/06/30 04:20:03;;;;;;;7.80;4.37;;;;;;;;;;5075924;28;20226;-77
2022/06/30 04:22:31;;;;;;;12.63;7.47;;;;;;;;;;5073426;28;20285;-77
2022/06/30 04:24:58;;;;;;;11.37;6.30;;;;;;;;;;5089203;28;20230;-77
2022/06/30 04:27:26;;;;;;;12.17;5.70;;;;;;;;;;5076057;28;20753;-77
2022/06/30 04:29:54;;;;;;;10.67;5.90;;;;;;;;;;5070564;28;20283;-77
2022/06/30 04:32:38;;;;;;;7.37;3.27;;;;;;;;;;5057945;28;20283;-77
2022/06/30 04:35:06;;;;;;;6.00;3.10;;;;;;;;;;5057983;28;20192;-77
2022/06/30 04:37:33;;;;;;;8.33;3.13;;;;;;;;;;5054816;28;20302;-77
2022/06/30 04:42:47;;;;;;;8.43;2.13;;;;;;;;;;5071536;28;20287;-77
2022/06/30 04:45:14;;;;;;;4.60;2.50;;;;;;;;;;5073113;28;20283;-77
2022/06/30 04:47:41;;;;;;;6.17;2.43;;;;;;;;;;5054390;28;20292;-77
2022/06/30 04:50:09;;;;;;;3.17;2.10;;;;;;;;;;5068170;28;20653;-77
2022/06/30 04:52:36;;;;;;;4.30;2.27;;;;;;;;;;5073149;28;20324;-77
2022/06/30 04:55:03;;;;;;;5.53;2.40;;;;;;;;;;5069518;28;20236;-77
2022/06/30 04:57:31;;;;;;;4.93;1.93;;;;;;;;;;5064812;28;20302;-76
2022/06/30 04:59:59;;;;;;;12.50;3.43;;;;;;;;;;5072625;28;20232;-77
2022/06/30 05:02:26;;;;;;;12.90;3.63;;;;;;;;;;5055585;28;20235;-77
2022/06/30 05:04:53;;;;;;;19.97;5.77;;;;;;;;;;5064011;28;20287;-77
2022/06/30 05:07:21;;;;;;;10.23;3.80;;;;;;;;;;5070193;28;20277;-77
2022/06/30 05:09:49;;;;;;;14.40;4.10;;;;;;;;;;5074025;28;20209;-77
2022/06/30 05:12:16;;;;;;;13.30;3.70;;;;;;;;;;5072254;28;21081;-76
2022/06/30 05:14:43;;;;;;;15.33;4.00;;;;;;;;;;5065458;28;20580;-76
2022/06/30 05:17:12;;;;;;;10.87;3.50;;;;;;;;;;5060412;28;20315;-76
2022/06/30 05:19:39;;;;;;;8.93;2.70;;;;;;;;;;5060250;28;20198;-76
2022/06/30 05:22:07;;;;;;;7.10;2.80;;;;;;;;;;5054419;28;20293;-76
2022/06/30 05:27:18;;;;;;;9.70;2.60;;;;;;;;;;5065857;28;20574;-79
2022/06/30 05:29:46;;;;;;;5.77;2.53;;;;;;;;;;5064745;28;20386;-76
2022/06/30 05:32:14;;;;;;;7.00;2.10;;;;;;;;;;5065343;28;20207;-77
2022/06/30 05:34:41;;;;;;;5.90;2.77;;;;;;;;;;5062370;28;20286;-76
2022/06/30 05:37:09;;;;;;;8.03;2.50;;;;;;;;;;5060381;28;20253;-76
2022/06/30 05:39:36;;;;;;;7.63;2.80;;;;;;;;;;5060410;28;20327;-77
2022/06/30 05:42:03;;;;;;;3.90;2.20;;;;;;;;;;5059296;28;20286;-76
2022/06/30 05:44:32;;;;;;;9.03;2.67;;;;;;;;;;5061961;28;20286;-76
2022/06/30 05:46:59;;;;;;;7.50;2.87;;;;;;;;;;5064962;28;20201;-77
2022/06/30 05:49:28;;;;;;;7.40;2.57;;;;;;;;;;5062251;28;20744;-76
2022/06/30 05:51:56;;;;;;;8.87;3.10;;;;;;;;;;5068865;28;20329;-76
2022/06/30 05:54:23;;;;;;;6.83;2.70;;;;;;;;;;5069628;28;20216;-76
2022/06/30 05:56:50;;;;;;;5.67;2.50;;;;;;;;;;5084227;28;20317;-76
2022/06/30 05:59:17;;;;;;;10.57;3.20;;;;;;;;;;5067627;28;20313;-76
2022/06/30 06:01:44;;;;;;;5.93;2.60;;;;;;;;;;5063984;28;20237;-76
2022/06/30 06:04:11;;;;;;;5.80;2.50;;;;;;;;;;5083793;28;20278;-76
2022/06/30 06:06:40;;;;;;;5.57;2.30;;;;;;;;;;5065211;28;20230;-76
2022/06/30 06:09:07;;;;;;;4.07;2.20;;;;;;;;;;5057800;28;20285;-76
2022/06/30 06:11:36;;;;;;;6.67;2.60;;;;;;;;;;5072561;28;20209;-77
2022/06/30 06:14:03;;;;;;;4.80;1.93;;;;;;;;;;5067132;28;20224;-76
2022/06/30 06:16:30;;;;;;;4.33;1.40;;;;;;;;;;5071947;28;20290;-77
2022/06/30 06:18:57;;;;;;;5.50;1.80;;;;;;;;;;5069428;28;20211;-77
2022/06/30 06:21:26;;;;;;;6.07;1.70;;;;;;;;;;5068847;28;20714;-77
2022/06/30 06:23:55;;;;;;;4.83;1.77;;;;;;;;;;5055974;28;20207;-78
2022/06/30 06:26:23;;;;;;;4.10;1.60;;;;;;;;;;5076898;28;20229;-77
2022/06/30 06:29:08;;;;;;;7.53;1.83;;;;;;;;;;5058476;28;20286;-77
2022/06/30 06:31:36;;;;;;;6.60;1.90;;;;;;;;;;5054635;28;20206;-77
2022/06/30 06:34:04;;;;;;;5.27;1.70;;;;;;;;;;5069466;28;20230;-77
2022/06/30 06:36:34;;;;;;;5.93;2.10;;;;;;;;;;5056324;28;20195;-77
2022/06/30 06:39:02;;;;;;;4.00;1.97;;;;;;;;;;5065636;28;20200;-78
2022/06/30 06:41:29;;;;;;;5.70;1.87;;;;;;;;;;5062724;28;20697;-78
2022/06/30 06:43:57;;;;;;;6.10;1.83;;;;;;;;;;5071284;28;20222;-79
2022/06/30 06:46:27;;;;;;;5.20;1.83;;;;;;;;;;5069316;28;20238;-79
2022/06/30 06:48:55;;;;;;;4.25;1.70;;;;;;;;;;5071956;28;20198;-79
2022/06/30 06:51:22;;;;;;;3.60;1.55;;;;;;;;;;5072195;28;20234;-79
2022/06/30 06:53:49;;;;;;;3.90;1.45;;;;;;;;;;5071201;28;20309;-77
2022/06/30 06:56:18;;;;;;;4.88;1.30;;;;;;;;;;5059809;28;20196;-79
2022/06/30 06:58:45;;;;;;;4.47;1.60;;;;;;;;;;5072601;28;20250;-79
2022/06/30 07:01:13;;;;;;;4.72;1.42;;;;;;;;;;5070432;28;20591;-79
2022/06/30 07:03:40;;;;;;;4.45;1.70;;;;;;;;;;5061184;28;20282;-78
2022/06/30 07:06:07;;;;;;;5.13;1.40;;;;;;;;;;5070086;28;20219;-78
2022/06/30 07:08:35;;;;;;;4.35;1.42;;;;;;;;;;5056047;28;20660;-78
2022/06/30 07:11:03;;;;;;;5.03;1.75;;;;;;;;;;5079866;28;20723;-77
2022/06/30 07:13:32;;;;;;;6.15;1.50;;;;;;;;;;5070845;28;20199;-80
2022/06/30 07:16:00;;;;;;;7.22;1.77;;;;;;;;;;5063606;28;20666;-78
2022/06/30 07:18:28;;;;;;;5.63;1.75;;;;;;;;;;5073774;28;20230;-77
2022/06/30 07:20:55;;;;;;;6.78;1.50;;;;;;;;;;5085717;28;20199;-77
2022/06/30 07:23:22;;;;;;;5.55;1.50;;;;;;;;;;5058021;28;20282;-80
2022/06/30 07:25:50;;;;;;;5.80;1.67;;;;;;;;;;5058563;28;20234;-79
2022/06/30 07:28:17;;;;;;;7.20;1.75;;;;;;;;;;5057227;28;20626;-79
2022/06/30 07:30:45;;;;;;;6.38;1.90;;;;;;;;;;5066887;28;20280;-79
2022/06/30 07:33:13;;;;;;;6.18;1.75;;;;;;;;;;5072581;28;20238;-79
2022/06/30 07:35:40;;;;;;;4.35;1.70;;;;;;;;;;5085707;28;20690;-79
2022/06/30 07:38:07;;;;;;;7.43;1.60;;;;;;;;;;5053453;28;20799;-79
2022/06/30 07:40:34;;;;;;;6.88;2.15;;;;;;;;;;5060516;28;20290;-78
2022/06/30 07:43:01;;;;;;;6.18;1.83;;;;;;;;;;5072423;28;20286;-78
2022/06/30 07:45:29;;;;;;;6.70;1.63;;;;;;;;;;5070146;28;20235;-79
2022/06/30 07:47:58;;;;;;;5.93;1.80;;;;;;;;;;5062305;28;20234;-79
2022/06/30 07:50:25;;;;;;;9.70;1.80;;;;;;;;;;5054194;28;20318;-79
2022/06/30 07:52:52;;;;;;;5.87;1.77;;;;;;;;;;5069222;28;20235;-78
2022/06/30 07:55:19;;;;;;;7.43;2.03;;;;;;;;;;5064527;28;20198;-79
2022/06/30 07:57:48;;;;;;;7.23;1.30;;;;;;;;;;5069660;28;20246;-79
2022/06/30 08:00:16;;;;;;;11.60;1.60;;;;;;;;;;5065722;28;20201;-78
2022/06/30 08:02:43;;;;;;;7.27;1.67;;;;;;;;;;5059045;28;20282;-78
2022/06/30 08:05:12;;;;;;;5.72;1.50;;;;;;;;;;5053045;28;20204;-79
2022/06/30 08:07:39;;;;;;;7.75;1.63;;;;;;;;;;5052409;28;20287;-79
2022/06/30 08:10:07;;;;;;;6.32;1.35;;;;;;;;;;5058206;28;20282;-79
2022/06/30 08:12:34;;;;;;;5.45;1.63;;;;;;;;;;5053367;28;20199;-78
2022/06/30 08:15:02;;;;;;;9.00;1.70;;;;;;;;;;5054574;28;20298;-79
2022/06/30 08:17:30;;;;;;;8.27;1.80;;;;;;;;;;5062025;28;20309;-79
2022/06/30 08:19:57;;;;;;;6.72;1.45;;;;;;;;;;5052535;28;20262;-79
2022/06/30 08:22:26;;;;;;;6.93;1.50;;;;;;;;;;5061508;28;20637;-79
2022/06/30 08:24:55;;;;;;;5.47;1.38;;;;;;;;;;5062495;28;20242;-79
2022/06/30 08:27:22;;;;;;;7.45;1.67;;;;;;;;;;5055830;28;20208;-79
2022/06/30 08:29:49;;;;;;;6.72;1.60;;;;;;;;;;5056189;28;20657;-79
2022/06/30 08:32:17;;;;;;;5.03;1.10;;;;;;;;;;5067805;28;20286;-79
2022/06/30 08:34:44;;;;;;;8.57;1.42;;;;;;;;;;5058501;28;20333;-78
2022/06/30 08:37:11;;;;;;;5.15;1.10;;;;;;;;;;5064191;28;20254;-78
2022/06/30 08:42:25;;;;;;;5.28;1.30;;;;;;;;;;5063832;28;20206;-78
2022/06/30 08:47:34;;;;;;;5.28;1.30;;;;;;;;;;5060772;28;20191;-78
2022/06/30 08:50:01;;;;;;;6.00;1.38;;;;;;;;;;5051754;28;20199;-78
2022/06/30 08:52:30;;;;;;;6.60;1.25;;;;;;;;;;5059780;28;20196;-79
2022/06/30 08:55:00;;;;;;;6.07;1.23;;;;;;;;;;5055830;28;20206;-78
2022/06/30 08:57:28;;;;;;;7.07;1.15;;;;;;;;;;5051298;28;20237;-78
2022/06/30 08:59:55;;;;;;;5.93;1.48;;;;;;;;;;5060395;28;20635;-78
2022/06/30 09:02:23;;;;;;;6.82;1.25;;;;;;;;;;5072479;28;20602;-79
2022/06/30 09:04:50;;;;;;;5.95;1.52;;;;;;;;;;5070825;28;21611;-79
2022/06/30 09:07:17;;;;;;;5.68;1.00;;;;;;;;;;5073851;28;20234;-78
2022/06/30 09:09:45;;;;;;;4.32;1.08;;;;;;;;;;5059264;28;20223;-79
2022/06/30 09:12:17;;;;;;;5.43;1.33;;;;;;;;;;5062416;28;20227;-79
2022/06/30 09:14:46;;;;;;;7.20;1.20;;;;;;;;;;5065012;28;20648;-79
2022/06/30 09:17:14;;;;;;;3.03;0.90;;;;;;;;;;5056795;28;20200;-79
2022/06/30 09:19:59;;;;;;;5.63;0.90;;;;;;;;;;5063349;28;20306;-79
2022/06/30 09:22:28;;;;;;;4.30;1.05;;;;;;;;;;5062667;28;20269;-79
2022/06/30 09:24:56;;;;;;;4.10;0.88;;;;;;;;;;5063801;28;20651;-79
2022/06/30 09:27:27;;;;;;;3.90;0.90;;;;;;;;;;5068229;28;20286;-78
2022/06/30 09:29:55;;;;;;;5.18;1.13;;;;;;;;;;5070570;28;20210;-78
2022/06/30 09:32:22;;;;;;;4.70;1.20;;;;;;;;;;5064146;28;20227;-78
2022/06/30 09:34:50;;;;;;;5.40;1.15;;;;;;;;;;5067287;28;20665;-78
2022/06/30 09:37:19;;;;;;;5.15;0.98;;;;;;;;;;5073393;28;20306;-78
2022/06/30 09:39:47;;;;;;;4.00;0.90;;;;;;;;;;5068385;28;20297;-78
2022/06/30 09:42:14;;;;;;;3.20;0.95;;;;;;;;;;5058084;28;20276;-78
2022/06/30 09:44:49;;;;;;;3.20;1.05;;;;;;;;;;5054190;28;20639;-78
2022/06/30 09:47:17;;;;;;;3.78;0.88;;;;;;;;;;5056887;28;20211;-78
2022/06/30 09:49:46;;;;;;;3.60;0.80;;;;;;;;;;5069957;28;20629;-78
2022/06/30 09:52:17;;;;;;;3.33;1.00;;;;;;;;;;5058834;28;20235;-78
2022/06/30 09:54:53;;;;;;;3.90;0.98;;;;;;;;;;5053237;28;20199;-78
2022/06/30 09:57:20;;;;;;;2.85;0.90;;;;;;;;;;5065530;28;20195;-79
2022/06/30 09:59:58;;;;;;;2.35;1.02;;;;;;;;;;5061482;28;20306;-79
2022/06/30 10:02:28;;;;;;;4.05;1.13;;;;;;;;;;5060914;28;20633;-79
2022/06/30 10:04:56;;;;;;;2.28;0.90;;;;;;;;;;4714562;28;10000803;-79
2022/06/30 10:07:24;;;;;;;4.10;0.80;;;;;;;;;;5060622;28;20728;-79
2022/06/30 10:09:52;;;;;;;3.58;1.30;;;;;;;;;;5066969;28;20256;-80
2022/06/30 10:12:20;;;;;;;2.72;0.70;;;;;;;;;;5072965;28;20207;-79
2022/06/30 10:14:50;;;;;;;3.05;0.80;;;;;;;;;;5060881;28;20710;-79
2022/06/30 10:20:08;;;;;;;4.13;0.80;;;;;;;;;;5063493;28;20218;-79
2022/06/30 10:22:35;;;;;;;2.22;0.60;;;;;;;;;;5060949;28;20279;-78
2022/06/30 10:25:02;;;;;;;3.83;0.80;;;;;;;;;;5067286;28;20277;-79
2022/06/30 10:27:29;;;;;;;4.38;0.93;;;;;;;;;;5057355;28;20231;-79
2022/06/30 10:29:59;;;;;;;3.22;0.90;;;;;;;;;;5064416;28;20231;-79
2022/06/30 10:32:32;;;;;;;2.92;0.80;;;;;;;;;;5063914;28;20637;-79
2022/06/30 10:35:06;;;;;;;3.70;0.90;;;;;;;;;;5052802;28;20249;-79
2022/06/30 10:37:37;;;;;;;1.92;0.80;;;;;;;;;;5056599;28;20283;-79
2022/06/30 10:40:08;;;;;;;2.03;0.75;;;;;;;;;;5061504;28;20215;-79
2022/06/30 10:42:45;;;;;;;3.45;0.90;;;;;;;;;;5080091;28;20278;-79
2022/06/30 10:45:31;;;;;;;2.42;0.70;;;;;;;;;;5071917;28;20290;-79
2022/06/30 10:47:59;;;;;;;2.03;0.60;;;;;;;;;;5062491;28;20286;-79
2022/06/30 10:50:33;;;;;;;1.55;0.70;;;;;;;;;;5062591;28;20282;-79
2022/06/30 10:53:01;;;;;;;3.58;1.10;;;;;;;;;;5063291;28;20763;-79
2022/06/30 10:55:28;;;;;;;3.03;0.95;;;;;;;;;;5072010;28;20235;-79
2022/06/30 10:58:02;;;;;;;5.38;1.30;;;;;;;;;;5059724;28;20753;-79
2022/06/30 11:00:48;;;;;;;4.15;1.00;;;;;;;;;;5064336;28;20700;-79
2022/06/30 11:03:34;;;;;;;2.83;0.77;;;;;;;;;;5062664;28;20343;-79
2022/06/30 11:06:05;;;;;;;3.67;0.90;;;;;;;;;;5072654;28;20287;-79
2022/06/30 11:08:50;;;;;;;4.20;0.75;;;;;;;;;;5067224;28;20204;-79
2022/06/30 11:11:35;;;;;;;2.72;0.90;;;;;;;;;;5062982;28;20560;-79
2022/06/30 11:14:20;;;;;;;3.75;0.90;;;;;;;;;;5056188;28;20211;-79
2022/06/30 11:16:48;;;;;;;3.65;0.80;;;;;;;;;;5064048;28;20271;-79
2022/06/30 11:19:16;;;;;;;5.20;1.00;;;;;;;;;;5061038;28;20670;-79
2022/06/30 11:21:45;;;;;;;2.53;0.93;;;;;;;;;;5065343;28;20285;-78
2022/06/30 11:24:13;;;;;;;4.50;0.70;;;;;;;;;;5070166;28;20265;-79
2022/06/30 11:29:26;;;;;;;1.75;0.80;;;;;;;;;;5058252;28;20207;-79
2022/06/30 11:31:59;;;;;;;2.65;1.10;;;;;;;;;;5061564;28;20250;-79
2022/06/30 11:34:26;;;;;;;4.18;0.95;;;;;;;;;;5066954;28;20238;-80
2022/06/30 11:36:55;;;;;;;2.50;0.80;;;;;;;;;;5058485;28;20605;-79
2022/06/30 11:39:22;;;;;;;2.25;0.70;;;;;;;;;;5057247;28;20319;-79
2022/06/30 11:41:57;;;;;;;1.70;0.60;;;;;;;;;;5066196;28;20227;-79
2022/06/30 11:44:24;;;;;;;2.60;1.00;;;;;;;;;;5062416;28;20678;-79
2022/06/30 11:46:53;;;;;;;2.60;0.68;;;;;;;;;;5063575;28;20285;-78
2022/06/30 11:49:20;;;;;;;3.08;0.98;;;;;;;;;;5060779;28;20222;-78
2022/06/30 11:51:48;;;;;;;1.88;0.80;;;;;;;;;;5060326;28;20266;-79
2022/06/30 11:54:17;;;;;;;1.90;0.88;;;;;;;;;;5063081;28;20196;-79
2022/06/30 11:56:45;;;;;;;2.58;0.70;;;;;;;;;;5069663;28;20226;-78
2022/06/30 11:59:13;;;;;;;2.10;0.68;;;;;;;;;;5062828;28;20269;-79
2022/06/30 12:01:40;;;;;;;2.30;0.60;;;;;;;;;;5065532;28;20675;-78
2022/06/30 12:04:14;;;;;;;2.13;0.47;;;;;;;;;;5055564;28;20286;-79
2022/06/30 12:06:41;;;;;;;1.17;0.50;;;;;;;;;;5062844;28;20611;-79
2022/06/30 12:09:08;;;;;;;1.75;0.50;;;;;;;;;;5064512;28;20287;-79
2022/06/30 12:11:37;;;;;;;1.00;0.50;;;;;;;;;;5057467;28;20229;-79
2022/06/30 12:14:05;;;;;;;2.22;0.50;;;;;;;;;;5066719;28;20195;-79
2022/06/30 12:16:33;;;;;;;0.70;0.32;;;;;;;;;;5064072;28;20206;-78
2022/06/30 12:19:00;;;;;;;0.82;0.40;;;;;;;;;;5066528;28;20254;-79
2022/06/30 12:21:28;;;;;;;1.35;0.50;;;;;;;;;;5068478;28;20203;-78
2022/06/30 12:23:55;;;;;;;2.50;0.80;;;;;;;;;;5060734;28;20249;-79
2022/06/30 12:26:23;;;;;;;2.15;0.75;;;;;;;;;;5062011;28;20286;-79
2022/06/30 12:28:55;;;;;;;1.17;0.50;;;;;;;;;;5063302;28;20739;-79
2022/06/30 12:31:23;;;;;;;1.83;0.40;;;;;;;;;;5053924;28;20683;-78
2022/06/30 12:33:52;;;;;;;2.17;0.65;;;;;;;;;;5062692;28;20199;-79
2022/06/30 12:36:20;;;;;;;2.17;0.90;;;;;;;;;;5064572;28;20249;-79
2022/06/30 12:38:47;;;;;;;1.30;0.47;;;;;;;;;;5065272;28;20255;-79
2022/06/30 12:41:14;;;;;;;1.75;0.50;;;;;;;;;;5062191;28;20640;-79
2022/06/30 12:43:45;;;;;;;2.35;0.70;;;;;;;;;;5069384;28;20790;-79
2022/06/30 12:46:14;;;;;;;2.15;0.57;;;;;;;;;;5065142;28;20231;-79
2022/06/30 12:48:46;;;;;;;1.85;0.70;;;;;;;;;;5062541;28;20781;-78
2022/06/30 12:51:14;;;;;;;0.95;0.32;;;;;;;;;;5066502;28;20325;-78
2022/06/30 12:53:41;;;;;;;1.20;0.50;;;;;;;;;;5067857;28;20290;-78
2022/06/30 12:56:11;;;;;;;2.05;0.60;;;;;;;;;;5071473;28;20298;-78
2022/06/30 12:58:46;;;;;;;1.67;0.45;;;;;;;;;;5067384;28;20202;-77
2022/06/30 13:01:16;;;;;;;1.88;0.50;;;;;;;;;;5059183;28;20284;-77
2022/06/30 13:03:56;;;;;;;3.03;0.70;;;;;;;;;;5061194;28;20299;-77
2022/06/30 13:06:24;;;;;;;2.67;0.60;;;;;;;;;;5067846;28;20709;-77
2022/06/30 13:08:51;;;;;;;1.73;0.65;;;;;;;;;;5071909;28;20675;-77
2022/06/30 13:11:20;;;;;;;1.58;0.50;;;;;;;;;;5067726;28;20634;-77
2022/06/30 13:13:48;;;;;;;1.48;0.40;;;;;;;;;;5057441;28;20250;-77
2022/06/30 13:16:17;;;;;;;2.60;0.52;;;;;;;;;;5069823;28;20290;-77
2022/06/30 13:18:46;;;;;;;1.33;0.43;;;;;;;;;;5070593;28;20308;-77
2022/06/30 13:21:13;;;;;;;2.17;0.60;;;;;;;;;;5062283;28;20202;-77
2022/06/30 13:23:41;;;;;;;1.25;0.40;;;;;;;;;;5068616;28;20194;-77
2022/06/30 13:26:08;;;;;;;2.28;0.40;;;;;;;;;;5070470;28;20645;-77
2022/06/30 13:28:35;;;;;;;1.23;0.75;;;;;;;;;;5073041;28;20235;-77
2022/06/30 13:31:02;;;;;;;1.17;0.57;;;;;;;;;;5072298;28;20202;-77
2022/06/30 13:33:33;;;;;;;1.30;0.60;;;;;;;;;;5066336;28;20287;-77
2022/06/30 13:36:00;;;;;;;1.63;0.45;;;;;;;;;;5067044;28;20732;-77
2022/06/30 13:38:28;;;;;;;1.98;0.55;;;;;;;;;;5066078;28;20226;-77
2022/06/30 13:40:55;;;;;;;2.10;0.50;;;;;;;;;;5071022;28;20289;-77
2022/06/30 13:43:22;;;;;;;1.50;0.45;;;;;;;;;;5071576;28;20746;-77
2022/06/30 13:45:50;;;;;;;5.32;0.70;;;;;;;;;;5059316;28;20616;-77
2022/06/30 13:48:17;;;;;;;6.43;0.90;;;;;;;;;;5060393;28;20231;-77
2022/06/30 13:50:46;;;;;;;4.00;0.73;;;;;;;;;;5060902;28;20227;-77
2022/06/30 13:53:13;;;;;;;3.35;0.50;;;;;;;;;;5069100;28;20239;-77
2022/06/30 13:55:40;;;;;;;3.05;0.55;;;;;;;;;;5070764;28;20256;-77
2022/06/30 13:58:10;;;;;;;2.25;0.70;;;;;;;;;;5065856;28;20754;-77
2022/06/30 14:00:37;;;;;;;2.92;0.60;;;;;;;;;;5062039;28;20198;-77
2022/06/30 14:03:05;;;;;;;2.40;0.60;;;;;;;;;;5064842;28;20195;-77
2022/06/30 14:05:32;;;;;;;2.85;0.57;;;;;;;;;;5063752;28;20261;-77
2022/06/30 14:08:01;;;;;;;2.50;0.63;;;;;;;;;;5071743;28;20273;-77
2022/06/30 14:10:28;;;;;;;1.95;0.50;;;;;;;;;;5071785;28;20306;-77
2022/06/30 14:12:56;;;;;;;3.85;0.60;;;;;;;;;;5070131;28;20734;-77
2022/06/30 14:15:23;;;;;;;1.90;0.40;;;;;;;;;;5060915;28;20650;-77
2022/06/30 14:17:51;;;;;;;0.95;0.43;;;;;;;;;;5074606;28;20227;-77
2022/06/30 14:20:18;;;;;;;2.70;0.70;;;;;;;;;;5054184;28;20200;-77
2022/06/30 14:22:45;;;;;;;3.20;0.47;;;;;;;;;;5068193;28;20739;-77
2022/06/30 14:25:14;;;;;;;1.52;0.60;;;;;;;;;;5055133;28;20279;-77
2022/06/30 14:27:41;;;;;;;1.55;0.77;;;;;;;;;;5065893;28;20210;-77
2022/06/30 14:30:10;;;;;;;1.48;0.50;;;;;;;;;;5064495;28;20648;-77
2022/06/30 14:32:38;;;;;;;2.22;0.65;;;;;;;;;;5066359;28;20195;-77
2022/06/30 14:35:06;;;;;;;1.98;0.50;;;;;;;;;;5064186;28;20249;-77
2022/06/30 14:37:33;;;;;;;2.17;0.73;;;;;;;;;;5062138;28;20258;-77
2022/06/30 14:40:01;;;;;;;1.58;0.35;;;;;;;;;;5060039;28;20241;-77
2022/06/30 14:42:47;;;;;;;1.73;0.40;;;;;;;;;;5066369;28;20199;-77
2022/06/30 14:45:15;;;;;;;1.60;0.50;;;;;;;;;;5058352;28;20214;-77
2022/06/30 14:47:42;;;;;;;1.55;0.50;;;;;;;;;;5075123;28;20228;-78
2022/06/30 14:50:10;;;;;;;2.08;0.55;;;;;;;;;;5072915;28;20305;-77
2022/06/30 14:52:38;;;;;;;2.50;0.60;;;;;;;;;;5072663;28;20666;-77
2022/06/30 14:55:06;;;;;;;1.10;0.50;;;;;;;;;;5067021;28;20203;-77
2022/06/30 14:57:35;;;;;;;3.10;0.45;;;;;;;;;;5065804;28;20218;-77
2022/06/30 15:00:02;;;;;;;1.23;0.40;;;;;;;;;;5064173;28;20196;-77
2022/06/30 15:02:29;;;;;;;4.28;0.50;;;;;;;;;;5064332;28;20199;-77
2022/06/30 15:04:56;;;;;;;1.20;0.50;;;;;;;;;;5064716;28;20295;-78
2022/06/30 15:07:24;;;;;;;1.30;0.30;;;;;;;;;;5067094;28;20322;-77
2022/06/30 15:09:51;;;;;;;1.45;0.50;;;;;;;;;;5069331;28;20302;-78
2022/06/30 15:12:18;;;;;;;0.90;0.30;;;;;;;;;;5065966;28;20200;-77